sensor_id;sensor_type;location;lat;lon;timestamp;temperature;humidity
63899;HTU21D;50070;-32.946;-60.652;2024-03-08T00:00:18;28.75;57.63
63899;HTU21D;50070;-32.946;-60.652;2024-03-08T00:02:46;28.65;57.79
63899;HTU21D;50070;-32.946;-60.652;2024-03-08T00:05:13;28.80;57.82
63899;HTU21D;50070;-32.946;-60.652;2024-03-08T00:07:41;28.63;58.43
63899;HTU21D;50070;-32.946;-60.652;2024-03-08T00:10:10;28.72;58.21
63899;HTU21D;50070;-32.946;-60.652;2024-03-08T00:12:42;28.65;59.03
63899;HTU21D;50070;-32.946;-60.652;2024-03-08T00:15:15;28.56;59.07
63899;HTU21D;50070;-32.946;-60.652;2024-03-08T00:17:42;28.64;59.26
63899;HTU21D;50070;-32.946;-60.652;2024-03-08T00:20:09;28.74;59.70
63899;HTU21D;50070;-32.946;-60.652;2024-03-08T00:22:37;28.55;59.21
63899;HTU21D;50070;-32.946;-60.652;2024-03-08T00:25:05;28.54;58.98
63899;HTU21D;50070;-32.946;-60.652;2024-03-08T00:27:36;28.42;58.93
63899;HTU21D;50070;-32.946;-60.652;2024-03-08T00:30:03;28.29;60.13
63899;HTU21D;50070;-32.946;-60.652;2024-03-08T00:32:31;28.26;59.57
63899;HTU21D;50070;-32.946;-60.652;2024-03-08T00:34:58;28.26;59.96
63899;HTU21D;50070;-32.946;-60.652;2024-03-08T00:37:25;28.26;60.11
63899;HTU21D;50070;-32.946;-60.652;2024-03-08T00:39:52;28.27;60.52
63899;HTU21D;50070;-32.946;-60.652;2024-03-08T00:42:20;28.28;59.98
63899;HTU21D;50070;-32.946;-60.652;2024-03-08T00:44:47;28.41;59.20
63899;HTU21D;50070;-32.946;-60.652;2024-03-08T00:47:17;28.44;59.02
63899;HTU21D;50070;-32.946;-60.652;2024-03-08T00:49:44;28.26;59.96
63899;HTU21D;50070;-32.946;-60.652;2024-03-08T00:52:10;28.27;59.93
63899;HTU21D;50070;-32.946;-60.652;2024-03-08T00:54:37;28.33;59.86
63899;HTU21D;50070;-32.946;-60.652;2024-03-08T00:57:04;28.28;60.41
63899;HTU21D;50070;-32.946;-60.652;2024-03-08T00:59:32;28.17;61.00
63899;HTU21D;50070;-32.946;-60.652;2024-03-08T01:02:00;28.08;61.73
63899;HTU21D;50070;-32.946;-60.652;2024-03-08T01:04:27;28.02;61.76
63899;HTU21D;50070;-32.946;-60.652;2024-03-08T01:06:57;27.91;58.95
63899;HTU21D;50070;-32.946;-60.652;2024-03-08T01:09:25;27.86;60.49
63899;HTU21D;50070;-32.946;-60.652;2024-03-08T01:11:52;27.91;61.38
63899;HTU21D;50070;-32.946;-60.652;2024-03-08T01:14:21;27.91;62.23
63899;HTU21D;50070;-32.946;-60.652;2024-03-08T01:16:55;27.81;61.06
63899;HTU21D;50070;-32.946;-60.652;2024-03-08T01:19:21;27.90;61.49
63899;HTU21D;50070;-32.946;-60.652;2024-03-08T01:21:48;27.86;61.63
63899;HTU21D;50070;-32.946;-60.652;2024-03-08T01:24:15;27.71;61.32
63899;HTU21D;50070;-32.946;-60.652;2024-03-08T01:26:42;27.56;61.33
63899;HTU21D;50070;-32.946;-60.652;2024-03-08T01:29:09;27.59;62.75
63899;HTU21D;50070;-32.946;-60.652;2024-03-08T01:31:36;27.36;65.10
63899;HTU21D;50070;-32.946;-60.652;2024-03-08T01:34:02;27.34;64.60
63899;HTU21D;50070;-32.946;-60.652;2024-03-08T01:36:29;27.42;64.50
63899;HTU21D;50070;-32.946;-60.652;2024-03-08T01:38:56;27.56;63.31
63899;HTU21D;50070;-32.946;-60.652;2024-03-08T01:41:23;27.51;63.68
63899;HTU21D;50070;-32.946;-60.652;2024-03-08T01:43:50;27.67;62.99
63899;HTU21D;50070;-32.946;-60.652;2024-03-08T01:46:19;27.44;64.84
63899;HTU21D;50070;-32.946;-60.652;2024-03-08T01:48:50;27.53;64.59
63899;HTU21D;50070;-32.946;-60.652;2024-03-08T01:51:18;27.37;65.43
63899;HTU21D;50070;-32.946;-60.652;2024-03-08T01:53:46;27.39;63.13
63899;HTU21D;50070;-32.946;-60.652;2024-03-08T01:56:14;27.30;63.30
63899;HTU21D;50070;-32.946;-60.652;2024-03-08T01:58:42;27.14;65.56
63899;HTU21D;50070;-32.946;-60.652;2024-03-08T02:01:13;27.07;66.78
63899;HTU21D;50070;-32.946;-60.652;2024-03-08T02:03:43;27.08;66.87
63899;HTU21D;50070;-32.946;-60.652;2024-03-08T02:06:13;27.05;67.41
63899;HTU21D;50070;-32.946;-60.652;2024-03-08T02:08:43;27.02;68.63
63899;HTU21D;50070;-32.946;-60.652;2024-03-08T02:11:11;27.28;66.33
63899;HTU21D;50070;-32.946;-60.652;2024-03-08T02:13:38;27.08;65.82
63899;HTU21D;50070;-32.946;-60.652;2024-03-08T02:16:05;26.96;67.07
63899;HTU21D;50070;-32.946;-60.652;2024-03-08T02:18:33;27.17;65.91
63899;HTU21D;50070;-32.946;-60.652;2024-03-08T02:21:06;26.79;69.90
63899;HTU21D;50070;-32.946;-60.652;2024-03-08T02:23:34;26.94;68.25
63899;HTU21D;50070;-32.946;-60.652;2024-03-08T02:26:01;27.04;67.63
63899;HTU21D;50070;-32.946;-60.652;2024-03-08T02:28:28;27.00;68.42
63899;HTU21D;50070;-32.946;-60.652;2024-03-08T02:30:55;26.97;69.44
63899;HTU21D;50070;-32.946;-60.652;2024-03-08T02:33:22;26.95;70.01
63899;HTU21D;50070;-32.946;-60.652;2024-03-08T02:35:50;26.70;71.81
63899;HTU21D;50070;-32.946;-60.652;2024-03-08T02:38:21;26.81;71.32
63899;HTU21D;50070;-32.946;-60.652;2024-03-08T02:40:50;26.67;72.06
63899;HTU21D;50070;-32.946;-60.652;2024-03-08T02:43:18;26.68;72.74
63899;HTU21D;50070;-32.946;-60.652;2024-03-08T02:45:45;26.75;71.05
63899;HTU21D;50070;-32.946;-60.652;2024-03-08T02:48:13;26.90;69.66
63899;HTU21D;50070;-32.946;-60.652;2024-03-08T02:50:40;26.64;71.06
63899;HTU21D;50070;-32.946;-60.652;2024-03-08T02:53:09;26.62;71.38
63899;HTU21D;50070;-32.946;-60.652;2024-03-08T02:55:36;26.71;70.52
63899;HTU21D;50070;-32.946;-60.652;2024-03-08T02:58:03;26.47;72.48
63899;HTU21D;50070;-32.946;-60.652;2024-03-08T03:00:30;26.47;72.70
63899;HTU21D;50070;-32.946;-60.652;2024-03-08T03:02:58;26.65;70.60
63899;HTU21D;50070;-32.946;-60.652;2024-03-08T03:05:25;26.69;70.17
63899;HTU21D;50070;-32.946;-60.652;2024-03-08T03:07:52;26.67;70.23
63899;HTU21D;50070;-32.946;-60.652;2024-03-08T03:10:19;26.42;72.27
63899;HTU21D;50070;-32.946;-60.652;2024-03-08T03:12:48;26.41;72.45
63899;HTU21D;50070;-32.946;-60.652;2024-03-08T03:15:15;26.70;70.80
63899;HTU21D;50070;-32.946;-60.652;2024-03-08T03:17:49;26.69;70.55
63899;HTU21D;50070;-32.946;-60.652;2024-03-08T03:20:19;26.73;70.47
63899;HTU21D;50070;-32.946;-60.652;2024-03-08T03:22:52;26.92;69.17
63899;HTU21D;50070;-32.946;-60.652;2024-03-08T03:25:20;26.60;71.93
63899;HTU21D;50070;-32.946;-60.652;2024-03-08T03:27:52;26.40;72.96
63899;HTU21D;50070;-32.946;-60.652;2024-03-08T03:30:23;26.39;73.32
63899;HTU21D;50070;-32.946;-60.652;2024-03-08T03:32:53;26.42;73.93
63899;HTU21D;50070;-32.946;-60.652;2024-03-08T03:35:27;26.49;73.73
63899;HTU21D;50070;-32.946;-60.652;2024-03-08T03:37:55;26.64;72.19
63899;HTU21D;50070;-32.946;-60.652;2024-03-08T03:40:34;26.42;73.61
63899;HTU21D;50070;-32.946;-60.652;2024-03-08T03:43:01;26.49;73.10
63899;HTU21D;50070;-32.946;-60.652;2024-03-08T03:45:31;26.35;73.84
63899;HTU21D;50070;-32.946;-60.652;2024-03-08T03:48:07;26.32;73.83
63899;HTU21D;50070;-32.946;-60.652;2024-03-08T03:50:36;26.28;74.78
63899;HTU21D;50070;-32.946;-60.652;2024-03-08T03:53:04;26.27;74.22
63899;HTU21D;50070;-32.946;-60.652;2024-03-08T03:55:34;26.31;73.47
63899;HTU21D;50070;-32.946;-60.652;2024-03-08T03:58:03;26.17;73.51
63899;HTU21D;50070;-32.946;-60.652;2024-03-08T04:00:29;26.20;73.20
63899;HTU21D;50070;-32.946;-60.652;2024-03-08T04:02:56;26.25;72.67
63899;HTU21D;50070;-32.946;-60.652;2024-03-08T04:05:26;26.31;72.05
63899;HTU21D;50070;-32.946;-60.652;2024-03-08T04:07:53;26.06;73.70
63899;HTU21D;50070;-32.946;-60.652;2024-03-08T04:10:20;25.99;75.31
63899;HTU21D;50070;-32.946;-60.652;2024-03-08T04:12:46;26.01;74.58
63899;HTU21D;50070;-32.946;-60.652;2024-03-08T04:15:14;26.10;74.42
63899;HTU21D;50070;-32.946;-60.652;2024-03-08T04:17:41;25.97;74.22
63899;HTU21D;50070;-32.946;-60.652;2024-03-08T04:20:08;26.03;75.90
63899;HTU21D;50070;-32.946;-60.652;2024-03-08T04:22:38;25.88;76.91
63899;HTU21D;50070;-32.946;-60.652;2024-03-08T04:25:06;25.82;78.00
63899;HTU21D;50070;-32.946;-60.652;2024-03-08T04:27:33;25.77;78.62
63899;HTU21D;50070;-32.946;-60.652;2024-03-08T04:30:01;25.99;77.35
63899;HTU21D;50070;-32.946;-60.652;2024-03-08T04:32:28;26.02;77.37
63899;HTU21D;50070;-32.946;-60.652;2024-03-08T04:34:56;26.05;77.33
63899;HTU21D;50070;-32.946;-60.652;2024-03-08T04:37:22;26.02;76.73
63899;HTU21D;50070;-32.946;-60.652;2024-03-08T04:39:50;26.23;75.01
63899;HTU21D;50070;-32.946;-60.652;2024-03-08T04:42:16;26.04;76.64
63899;HTU21D;50070;-32.946;-60.652;2024-03-08T04:44:44;26.11;77.00
63899;HTU21D;50070;-32.946;-60.652;2024-03-08T04:47:11;26.15;76.50
63899;HTU21D;50070;-32.946;-60.652;2024-03-08T04:49:37;26.19;75.33
63899;HTU21D;50070;-32.946;-60.652;2024-03-08T04:52:04;26.05;76.54
63899;HTU21D;50070;-32.946;-60.652;2024-03-08T04:54:31;25.94;78.95
63899;HTU21D;50070;-32.946;-60.652;2024-03-08T04:56:58;26.09;78.21
63899;HTU21D;50070;-32.946;-60.652;2024-03-08T04:59:27;26.04;78.56
63899;HTU21D;50070;-32.946;-60.652;2024-03-08T05:01:54;25.74;80.20
63899;HTU21D;50070;-32.946;-60.652;2024-03-08T05:04:21;25.82;80.24
63899;HTU21D;50070;-32.946;-60.652;2024-03-08T05:06:48;25.66;82.41
63899;HTU21D;50070;-32.946;-60.652;2024-03-08T05:09:15;25.62;82.77
63899;HTU21D;50070;-32.946;-60.652;2024-03-08T05:11:46;25.77;82.20
63899;HTU21D;50070;-32.946;-60.652;2024-03-08T05:14:14;25.86;79.62
63899;HTU21D;50070;-32.946;-60.652;2024-03-08T05:16:46;25.72;80.95
63899;HTU21D;50070;-32.946;-60.652;2024-03-08T05:19:17;25.64;82.61
63899;HTU21D;50070;-32.946;-60.652;2024-03-08T05:21:47;25.67;82.20
63899;HTU21D;50070;-32.946;-60.652;2024-03-08T05:24:15;25.54;82.62
63899;HTU21D;50070;-32.946;-60.652;2024-03-08T05:26:42;25.66;81.47
63899;HTU21D;50070;-32.946;-60.652;2024-03-08T05:29:09;25.67;81.43
63899;HTU21D;50070;-32.946;-60.652;2024-03-08T05:31:46;25.64;81.05
63899;HTU21D;50070;-32.946;-60.652;2024-03-08T05:34:14;25.71;81.54
63899;HTU21D;50070;-32.946;-60.652;2024-03-08T05:36:42;25.63;82.14
63899;HTU21D;50070;-32.946;-60.652;2024-03-08T05:39:13;25.90;79.14
63899;HTU21D;50070;-32.946;-60.652;2024-03-08T05:41:40;25.73;79.42
63899;HTU21D;50070;-32.946;-60.652;2024-03-08T05:44:07;25.94;78.91
63899;HTU21D;50070;-32.946;-60.652;2024-03-08T05:46:34;25.56;81.91
63899;HTU21D;50070;-32.946;-60.652;2024-03-08T05:49:05;25.46;82.39
63899;HTU21D;50070;-32.946;-60.652;2024-03-08T05:51:36;25.40;82.77
63899;HTU21D;50070;-32.946;-60.652;2024-03-08T05:54:05;25.84;79.44
63899;HTU21D;50070;-32.946;-60.652;2024-03-08T05:56:32;25.71;80.36
63899;HTU21D;50070;-32.946;-60.652;2024-03-08T05:58:59;25.57;82.01
63899;HTU21D;50070;-32.946;-60.652;2024-03-08T06:01:27;25.76;81.36
63899;HTU21D;50070;-32.946;-60.652;2024-03-08T06:03:55;25.73;82.46
63899;HTU21D;50070;-32.946;-60.652;2024-03-08T06:06:23;25.61;82.22
63899;HTU21D;50070;-32.946;-60.652;2024-03-08T06:08:51;25.46;83.89
63899;HTU21D;50070;-32.946;-60.652;2024-03-08T06:11:19;25.56;79.16
63899;HTU21D;50070;-32.946;-60.652;2024-03-08T06:13:46;25.56;80.54
63899;HTU21D;50070;-32.946;-60.652;2024-03-08T06:16:13;25.61;80.69
63899;HTU21D;50070;-32.946;-60.652;2024-03-08T06:18:40;25.66;77.89
63899;HTU21D;50070;-32.946;-60.652;2024-03-08T06:21:07;25.61;78.59
63899;HTU21D;50070;-32.946;-60.652;2024-03-08T06:23:42;25.36;79.74
63899;HTU21D;50070;-32.946;-60.652;2024-03-08T06:26:08;25.29;80.78
63899;HTU21D;50070;-32.946;-60.652;2024-03-08T06:28:35;25.20;81.70
63899;HTU21D;50070;-32.946;-60.652;2024-03-08T06:31:03;25.39;80.98
63899;HTU21D;50070;-32.946;-60.652;2024-03-08T06:33:30;25.57;78.40
63899;HTU21D;50070;-32.946;-60.652;2024-03-08T06:36:01;25.58;78.10
63899;HTU21D;50070;-32.946;-60.652;2024-03-08T06:38:28;25.45;79.01
63899;HTU21D;50070;-32.946;-60.652;2024-03-08T06:40:56;25.46;80.34
63899;HTU21D;50070;-32.946;-60.652;2024-03-08T06:43:23;25.31;81.40
63899;HTU21D;50070;-32.946;-60.652;2024-03-08T06:45:56;25.18;82.78
63899;HTU21D;50070;-32.946;-60.652;2024-03-08T06:48:22;25.14;84.04
63899;HTU21D;50070;-32.946;-60.652;2024-03-08T06:50:49;25.22;84.29
63899;HTU21D;50070;-32.946;-60.652;2024-03-08T06:53:16;25.33;81.83
63899;HTU21D;50070;-32.946;-60.652;2024-03-08T06:55:45;25.33;81.62
63899;HTU21D;50070;-32.946;-60.652;2024-03-08T06:58:12;25.18;82.52
63899;HTU21D;50070;-32.946;-60.652;2024-03-08T07:00:38;25.28;82.36
63899;HTU21D;50070;-32.946;-60.652;2024-03-08T07:03:08;24.99;84.07
63899;HTU21D;50070;-32.946;-60.652;2024-03-08T07:05:38;24.88;86.51
63899;HTU21D;50070;-32.946;-60.652;2024-03-08T07:08:05;25.13;84.61
63899;HTU21D;50070;-32.946;-60.652;2024-03-08T07:10:32;25.08;84.49
63899;HTU21D;50070;-32.946;-60.652;2024-03-08T07:13:01;25.15;82.39
63899;HTU21D;50070;-32.946;-60.652;2024-03-08T07:15:30;25.07;81.46
63899;HTU21D;50070;-32.946;-60.652;2024-03-08T07:17:57;24.94;83.07
63899;HTU21D;50070;-32.946;-60.652;2024-03-08T07:20:26;25.18;81.94
63899;HTU21D;50070;-32.946;-60.652;2024-03-08T07:22:52;25.00;82.68
63899;HTU21D;50070;-32.946;-60.652;2024-03-08T07:25:20;24.72;83.78
63899;HTU21D;50070;-32.946;-60.652;2024-03-08T07:27:51;24.93;83.77
63899;HTU21D;50070;-32.946;-60.652;2024-03-08T07:30:22;25.01;81.71
63899;HTU21D;50070;-32.946;-60.652;2024-03-08T07:33:07;24.98;79.54
63899;HTU21D;50070;-32.946;-60.652;2024-03-08T07:35:41;24.98;79.63
63899;HTU21D;50070;-32.946;-60.652;2024-03-08T07:38:11;24.92;80.11
63899;HTU21D;50070;-32.946;-60.652;2024-03-08T07:40:39;24.80;81.17
63899;HTU21D;50070;-32.946;-60.652;2024-03-08T07:43:07;24.97;80.87
63899;HTU21D;50070;-32.946;-60.652;2024-03-08T07:45:34;24.88;80.29
63899;HTU21D;50070;-32.946;-60.652;2024-03-08T07:48:02;24.76;81.79
63899;HTU21D;50070;-32.946;-60.652;2024-03-08T07:50:29;24.90;81.99
63899;HTU21D;50070;-32.946;-60.652;2024-03-08T07:52:56;24.75;83.18
63899;HTU21D;50070;-32.946;-60.652;2024-03-08T07:55:22;24.77;82.92
63899;HTU21D;50070;-32.946;-60.652;2024-03-08T07:57:50;24.91;81.94
63899;HTU21D;50070;-32.946;-60.652;2024-03-08T08:00:17;25.04;80.78
63899;HTU21D;50070;-32.946;-60.652;2024-03-08T08:02:45;24.95;82.51
63899;HTU21D;50070;-32.946;-60.652;2024-03-08T08:05:12;25.07;80.40
63899;HTU21D;50070;-32.946;-60.652;2024-03-08T08:07:39;24.91;81.45
63899;HTU21D;50070;-32.946;-60.652;2024-03-08T08:10:09;24.78;82.27
63899;HTU21D;50070;-32.946;-60.652;2024-03-08T08:12:44;24.91;81.34
63899;HTU21D;50070;-32.946;-60.652;2024-03-08T08:15:12;24.93;81.50
63899;HTU21D;50070;-32.946;-60.652;2024-03-08T08:17:39;24.95;81.56
63899;HTU21D;50070;-32.946;-60.652;2024-03-08T08:20:06;24.76;83.07
63899;HTU21D;50070;-32.946;-60.652;2024-03-08T08:22:33;24.64;83.81
63899;HTU21D;50070;-32.946;-60.652;2024-03-08T08:25:00;24.63;84.85
63899;HTU21D;50070;-32.946;-60.652;2024-03-08T08:27:27;24.61;84.60
63899;HTU21D;50070;-32.946;-60.652;2024-03-08T08:29:54;24.50;85.08
63899;HTU21D;50070;-32.946;-60.652;2024-03-08T08:32:22;24.54;84.81
63899;HTU21D;50070;-32.946;-60.652;2024-03-08T08:34:49;24.39;85.80
63899;HTU21D;50070;-32.946;-60.652;2024-03-08T08:37:16;24.32;86.76
63899;HTU21D;50070;-32.946;-60.652;2024-03-08T08:39:42;24.20;88.29
63899;HTU21D;50070;-32.946;-60.652;2024-03-08T08:42:09;24.41;87.37
63899;HTU21D;50070;-32.946;-60.652;2024-03-08T08:44:37;24.33;87.87
63899;HTU21D;50070;-32.946;-60.652;2024-03-08T08:47:04;24.47;85.92
63899;HTU21D;50070;-32.946;-60.652;2024-03-08T08:49:30;24.39;87.10
63899;HTU21D;50070;-32.946;-60.652;2024-03-08T08:51:57;24.58;85.84
63899;HTU21D;50070;-32.946;-60.652;2024-03-08T08:54:24;24.31;86.82
63899;HTU21D;50070;-32.946;-60.652;2024-03-08T08:56:53;24.39;86.26
63899;HTU21D;50070;-32.946;-60.652;2024-03-08T08:59:20;24.30;86.81
63899;HTU21D;50070;-32.946;-60.652;2024-03-08T09:01:49;24.35;87.03
63899;HTU21D;50070;-32.946;-60.652;2024-03-08T09:04:18;24.58;86.10
63899;HTU21D;50070;-32.946;-60.652;2024-03-08T09:06:45;24.50;87.64
63899;HTU21D;50070;-32.946;-60.652;2024-03-08T09:09:11;24.35;89.24
63899;HTU21D;50070;-32.946;-60.652;2024-03-08T09:11:39;24.36;89.89
63899;HTU21D;50070;-32.946;-60.652;2024-03-08T09:14:09;24.56;88.41
63899;HTU21D;50070;-32.946;-60.652;2024-03-08T09:16:38;24.26;92.41
63899;HTU21D;50070;-32.946;-60.652;2024-03-08T09:19:04;24.61;90.19
63899;HTU21D;50070;-32.946;-60.652;2024-03-08T09:21:33;24.68;90.31
63899;HTU21D;50070;-32.946;-60.652;2024-03-08T09:24:04;24.73;90.19
63899;HTU21D;50070;-32.946;-60.652;2024-03-08T09:26:30;24.74;90.77
63899;HTU21D;50070;-32.946;-60.652;2024-03-08T09:28:57;24.59;91.89
63899;HTU21D;50070;-32.946;-60.652;2024-03-08T09:31:24;24.36;92.63
63899;HTU21D;50070;-32.946;-60.652;2024-03-08T09:33:50;24.41;91.56
63899;HTU21D;50070;-32.946;-60.652;2024-03-08T09:36:17;24.59;90.54
63899;HTU21D;50070;-32.946;-60.652;2024-03-08T09:38:44;24.61;89.33
63899;HTU21D;50070;-32.946;-60.652;2024-03-08T09:41:11;24.33;91.67
63899;HTU21D;50070;-32.946;-60.652;2024-03-08T09:43:39;24.30;91.63
63899;HTU21D;50070;-32.946;-60.652;2024-03-08T09:46:06;24.36;91.37
63899;HTU21D;50070;-32.946;-60.652;2024-03-08T09:48:34;24.44;89.30
63899;HTU21D;50070;-32.946;-60.652;2024-03-08T09:51:02;24.54;88.75
63899;HTU21D;50070;-32.946;-60.652;2024-03-08T09:53:29;24.58;88.60
63899;HTU21D;50070;-32.946;-60.652;2024-03-08T09:55:57;24.36;89.09
63899;HTU21D;50070;-32.946;-60.652;2024-03-08T09:58:25;24.40;89.17
63899;HTU21D;50070;-32.946;-60.652;2024-03-08T10:01:01;24.45;88.76
63899;HTU21D;50070;-32.946;-60.652;2024-03-08T10:03:33;24.44;90.19
63899;HTU21D;50070;-32.946;-60.652;2024-03-08T10:06:02;24.48;88.65
63899;HTU21D;50070;-32.946;-60.652;2024-03-08T10:08:30;24.41;89.38
63899;HTU21D;50070;-32.946;-60.652;2024-03-08T10:10:57;24.47;89.32
63899;HTU21D;50070;-32.946;-60.652;2024-03-08T10:13:27;24.47;89.97
63899;HTU21D;50070;-32.946;-60.652;2024-03-08T10:15:54;24.56;88.25
63899;HTU21D;50070;-32.946;-60.652;2024-03-08T10:18:21;24.45;89.45
63899;HTU21D;50070;-32.946;-60.652;2024-03-08T10:21:06;24.41;90.31
63899;HTU21D;50070;-32.946;-60.652;2024-03-08T10:23:33;24.33;90.86
63899;HTU21D;50070;-32.946;-60.652;2024-03-08T10:26:13;24.43;91.37
63899;HTU21D;50070;-32.946;-60.652;2024-03-08T10:28:51;24.44;92.63
63899;HTU21D;50070;-32.946;-60.652;2024-03-08T10:31:19;24.39;92.53
63899;HTU21D;50070;-32.946;-60.652;2024-03-08T10:33:46;24.35;93.14
63899;HTU21D;50070;-32.946;-60.652;2024-03-08T10:36:14;24.56;91.63
63899;HTU21D;50070;-32.946;-60.652;2024-03-08T10:38:43;24.50;92.34
63899;HTU21D;50070;-32.946;-60.652;2024-03-08T10:41:13;24.58;90.81
63899;HTU21D;50070;-32.946;-60.652;2024-03-08T10:46:36;24.47;92.22
63899;HTU21D;50070;-32.946;-60.652;2024-03-08T10:49:12;24.68;90.57
63899;HTU21D;50070;-32.946;-60.652;2024-03-08T10:51:44;24.49;91.54
63899;HTU21D;50070;-32.946;-60.652;2024-03-08T10:54:14;24.35;92.19
63899;HTU21D;50070;-32.946;-60.652;2024-03-08T10:56:43;24.55;91.21
63899;HTU21D;50070;-32.946;-60.652;2024-03-08T10:59:13;24.65;89.47
63899;HTU21D;50070;-32.946;-60.652;2024-03-08T11:01:40;24.78;89.57
63899;HTU21D;50070;-32.946;-60.652;2024-03-08T11:04:07;24.62;89.41
63899;HTU21D;50070;-32.946;-60.652;2024-03-08T11:09:11;24.75;89.86
63899;HTU21D;50070;-32.946;-60.652;2024-03-08T11:12:26;24.59;91.04
63899;HTU21D;50070;-32.946;-60.652;2024-03-08T11:14:59;24.74;90.23
63899;HTU21D;50070;-32.946;-60.652;2024-03-08T11:17:42;24.65;90.11
63899;HTU21D;50070;-32.946;-60.652;2024-03-08T11:20:18;24.69;90.97
63899;HTU21D;50070;-32.946;-60.652;2024-03-08T11:22:54;24.43;91.85
63899;HTU21D;50070;-32.946;-60.652;2024-03-08T11:25:33;24.53;91.68
63899;HTU21D;50070;-32.946;-60.652;2024-03-08T11:28:19;24.58;91.00
63899;HTU21D;50070;-32.946;-60.652;2024-03-08T11:33:30;24.54;90.92
63899;HTU21D;50070;-32.946;-60.652;2024-03-08T11:36:13;24.76;89.73
63899;HTU21D;50070;-32.946;-60.652;2024-03-08T11:38:48;24.66;89.25
63899;HTU21D;50070;-32.946;-60.652;2024-03-08T11:41:17;24.65;89.11
63899;HTU21D;50070;-32.946;-60.652;2024-03-08T11:43:46;24.56;89.75
63899;HTU21D;50070;-32.946;-60.652;2024-03-08T11:46:14;24.34;91.64
63899;HTU21D;50070;-32.946;-60.652;2024-03-08T11:48:42;24.49;90.50
63899;HTU21D;50070;-32.946;-60.652;2024-03-08T11:51:13;24.68;90.28
63899;HTU21D;50070;-32.946;-60.652;2024-03-08T11:53:41;24.75;89.82
63899;HTU21D;50070;-32.946;-60.652;2024-03-08T11:56:12;24.71;89.41
63899;HTU21D;50070;-32.946;-60.652;2024-03-08T11:58:40;24.74;89.57
63899;HTU21D;50070;-32.946;-60.652;2024-03-08T12:01:10;24.72;90.09
63899;HTU21D;50070;-32.946;-60.652;2024-03-08T12:03:40;24.66;89.80
63899;HTU21D;50070;-32.946;-60.652;2024-03-08T12:06:11;24.57;90.55
63899;HTU21D;50070;-32.946;-60.652;2024-03-08T12:08:39;24.73;89.84
63899;HTU21D;50070;-32.946;-60.652;2024-03-08T12:11:08;25.05;88.06
63899;HTU21D;50070;-32.946;-60.652;2024-03-08T12:13:36;25.17;86.92
63899;HTU21D;50070;-32.946;-60.652;2024-03-08T12:16:03;25.10;87.43
63899;HTU21D;50070;-32.946;-60.652;2024-03-08T12:18:34;25.14;88.78
63899;HTU21D;50070;-32.946;-60.652;2024-03-08T12:21:08;25.51;86.86
63899;HTU21D;50070;-32.946;-60.652;2024-03-08T12:23:37;25.65;85.48
63899;HTU21D;50070;-32.946;-60.652;2024-03-08T12:26:15;25.93;85.01
63899;HTU21D;50070;-32.946;-60.652;2024-03-08T12:28:43;25.90;85.65
63899;HTU21D;50070;-32.946;-60.652;2024-03-08T12:31:14;25.89;86.02
63899;HTU21D;50070;-32.946;-60.652;2024-03-08T12:33:56;26.03;86.19
63899;HTU21D;50070;-32.946;-60.652;2024-03-08T12:36:25;25.86;89.17
63899;HTU21D;50070;-32.946;-60.652;2024-03-08T12:38:53;26.04;89.14
63899;HTU21D;50070;-32.946;-60.652;2024-03-08T12:41:21;26.32;87.35
63899;HTU21D;50070;-32.946;-60.652;2024-03-08T12:43:48;26.39;88.42
63899;HTU21D;50070;-32.946;-60.652;2024-03-08T12:46:19;26.60;86.80
63899;HTU21D;50070;-32.946;-60.652;2024-03-08T12:48:47;26.81;86.09
63899;HTU21D;50070;-32.946;-60.652;2024-03-08T12:51:14;26.76;88.25
63899;HTU21D;50070;-32.946;-60.652;2024-03-08T12:53:45;26.71;88.18
63899;HTU21D;50070;-32.946;-60.652;2024-03-08T12:56:13;26.85;87.66
63899;HTU21D;50070;-32.946;-60.652;2024-03-08T12:58:41;26.73;88.73
63899;HTU21D;50070;-32.946;-60.652;2024-03-08T13:01:09;27.08;87.35
63899;HTU21D;50070;-32.946;-60.652;2024-03-08T13:03:36;27.39;85.36
63899;HTU21D;50070;-32.946;-60.652;2024-03-08T13:06:04;26.92;88.40
63899;HTU21D;50070;-32.946;-60.652;2024-03-08T13:08:37;26.56;90.88
63899;HTU21D;50070;-32.946;-60.652;2024-03-08T13:11:10;26.91;89.47
63899;HTU21D;50070;-32.946;-60.652;2024-03-08T13:13:38;27.15;87.80
63899;HTU21D;50070;-32.946;-60.652;2024-03-08T13:16:06;26.99;89.44
63899;HTU21D;50070;-32.946;-60.652;2024-03-08T13:18:38;27.05;89.34
63899;HTU21D;50070;-32.946;-60.652;2024-03-08T13:21:05;26.90;91.04
63899;HTU21D;50070;-32.946;-60.652;2024-03-08T13:23:33;26.99;90.99
63899;HTU21D;50070;-32.946;-60.652;2024-03-08T13:26:07;27.52;88.02
63899;HTU21D;50070;-32.946;-60.652;2024-03-08T13:28:34;28.43;82.36
63899;HTU21D;50070;-32.946;-60.652;2024-03-08T13:31:04;28.95;78.82
63899;HTU21D;50070;-32.946;-60.652;2024-03-08T13:33:36;29.35;75.90
63899;HTU21D;50070;-32.946;-60.652;2024-03-08T13:36:14;29.73;74.99
63899;HTU21D;50070;-32.946;-60.652;2024-03-08T13:38:43;29.34;77.58
63899;HTU21D;50070;-32.946;-60.652;2024-03-08T13:41:13;30.34;70.59
63899;HTU21D;50070;-32.946;-60.652;2024-03-08T13:43:43;30.11;71.87
63899;HTU21D;50070;-32.946;-60.652;2024-03-08T13:46:10;30.19;72.37
63899;HTU21D;50070;-32.946;-60.652;2024-03-08T13:48:37;29.27;79.34
63899;HTU21D;50070;-32.946;-60.652;2024-03-08T13:51:04;29.12;80.21
63899;HTU21D;50070;-32.946;-60.652;2024-03-08T13:53:36;29.34;79.53
63899;HTU21D;50070;-32.946;-60.652;2024-03-08T13:56:03;29.03;80.66
63899;HTU21D;50070;-32.946;-60.652;2024-03-08T13:58:31;28.91;83.76
63899;HTU21D;50070;-32.946;-60.652;2024-03-08T14:00:58;29.03;83.83
63899;HTU21D;50070;-32.946;-60.652;2024-03-08T14:03:25;28.86;85.22
63899;HTU21D;50070;-32.946;-60.652;2024-03-08T14:05:52;29.17;82.10
63899;HTU21D;50070;-32.946;-60.652;2024-03-08T14:08:21;28.67;86.29
63899;HTU21D;50070;-32.946;-60.652;2024-03-08T14:10:48;28.68;86.64
63899;HTU21D;50070;-32.946;-60.652;2024-03-08T14:13:16;28.94;84.32
63899;HTU21D;50070;-32.946;-60.652;2024-03-08T14:15:44;28.68;86.29
63899;HTU21D;50070;-32.946;-60.652;2024-03-08T14:18:12;28.89;85.92
63899;HTU21D;50070;-32.946;-60.652;2024-03-08T14:20:41;29.86;79.61
63899;HTU21D;50070;-32.946;-60.652;2024-03-08T14:23:08;31.29;71.75
63899;HTU21D;50070;-32.946;-60.652;2024-03-08T14:25:35;31.54;68.98
63899;HTU21D;50070;-32.946;-60.652;2024-03-08T14:28:02;31.26;70.88
63899;HTU21D;50070;-32.946;-60.652;2024-03-08T14:30:34;31.80;68.32
63899;HTU21D;50070;-32.946;-60.652;2024-03-08T14:33:08;32.17;66.36
63899;HTU21D;50070;-32.946;-60.652;2024-03-08T14:35:40;32.41;66.08
63899;HTU21D;50070;-32.946;-60.652;2024-03-08T14:38:08;33.50;59.67
63899;HTU21D;50070;-32.946;-60.652;2024-03-08T14:40:37;33.26;61.59
63899;HTU21D;50070;-32.946;-60.652;2024-03-08T14:43:04;34.12;58.01
63899;HTU21D;50070;-32.946;-60.652;2024-03-08T14:45:31;34.48;54.96
63899;HTU21D;50070;-32.946;-60.652;2024-03-08T14:47:58;35.52;51.08
63899;HTU21D;50070;-32.946;-60.652;2024-03-08T14:50:25;34.95;53.54
63899;HTU21D;50070;-32.946;-60.652;2024-03-08T14:52:52;34.80;54.65